createdAt,value
2018-05-17T00:01:21.867Z,12.40
2018-05-17T00:03:54.128Z,12.37
2018-05-17T00:06:22.917Z,13.23
2018-05-17T00:08:50.686Z,12.60
2018-05-17T00:11:18.964Z,13.13
2018-05-17T00:13:46.912Z,12.50
2018-05-17T00:16:15.444Z,12.40
2018-05-17T00:18:44.292Z,12.47
2018-05-17T00:21:11.931Z,12.20
2018-05-17T00:23:39.543Z,12.13
2018-05-17T00:26:07.172Z,12.30
2018-05-17T00:28:35.572Z,12.57
2018-05-17T00:31:03.834Z,11.47
2018-05-17T00:33:31.462Z,11.60
2018-05-17T00:36:00.673Z,12.27
2018-05-17T00:38:28.872Z,12.53
2018-05-17T00:40:57.288Z,12.73
2018-05-17T00:43:25.903Z,12.43
2018-05-17T00:45:54.720Z,12.33
2018-05-17T00:48:23.167Z,12.40
2018-05-17T00:50:51.621Z,12.80
2018-05-17T00:53:31.186Z,12.30
2018-05-17T00:55:58.919Z,11.53
2018-05-17T00:58:26.503Z,12.20
2018-05-17T01:00:55.395Z,11.30
2018-05-17T01:03:23.805Z,10.87
2018-05-17T01:05:52.206Z,11.20
2018-05-17T01:08:21.053Z,11.47
2018-05-17T01:10:50.150Z,10.97
2018-05-17T01:13:19.505Z,10.17
2018-05-17T01:15:48.016Z,10.13
2018-05-17T01:18:16.066Z,10.80
2018-05-17T01:20:46.339Z,11.37
2018-05-17T01:23:13.961Z,10.30
2018-05-17T01:25:41.632Z,9.63
2018-05-17T01:28:09.234Z,10.50
2018-05-17T01:30:36.866Z,9.03
2018-05-17T01:33:04.651Z,10.83
2018-05-17T01:35:32.352Z,9.93
2018-05-17T01:38:12.597Z,9.97
2018-05-17T01:40:40.246Z,9.70
2018-05-17T01:43:07.858Z,10.83
2018-05-17T01:45:35.485Z,10.20
2018-05-17T01:48:03.148Z,10.37
2018-05-17T01:50:32.424Z,9.27
2018-05-17T01:53:01.339Z,9.87
2018-05-17T01:55:28.978Z,9.20
2018-05-17T01:57:57.836Z,9.70
2018-05-17T02:00:25.870Z,8.90
2018-05-17T02:02:53.510Z,9.23
2018-05-17T02:05:22.588Z,9.83
2018-05-17T02:07:51.886Z,9.50
2018-05-17T02:10:23.623Z,9.70
2018-05-17T02:12:52.745Z,8.50
2018-05-17T02:15:24.958Z,8.70
2018-05-17T02:17:52.867Z,8.90
2018-05-17T02:20:21.143Z,8.50
2018-05-17T02:22:50.539Z,8.13
2018-05-17T02:25:23.778Z,8.47
2018-05-17T02:27:53.681Z,7.83
2018-05-17T02:30:25.449Z,8.27
2018-05-17T02:32:53.081Z,8.10
2018-05-17T02:35:22.060Z,8.37
2018-05-17T02:37:50.588Z,8.17
2018-05-17T02:40:21.611Z,7.83
2018-05-17T02:42:53.419Z,7.53
2018-05-17T02:45:21.064Z,8.03
2018-05-17T02:47:50.435Z,7.30
2018-05-17T02:50:22.069Z,7.70
2018-05-17T02:52:49.733Z,7.50
2018-05-17T02:55:17.777Z,7.40
2018-05-17T02:57:54.317Z,7.33
2018-05-17T03:00:29.985Z,6.93
2018-05-17T03:02:57.692Z,7.47
2018-05-17T03:05:25.350Z,7.37
2018-05-17T03:07:53.084Z,7.70
2018-05-17T03:10:21.976Z,7.47
2018-05-17T03:12:51.040Z,7.60
2018-05-17T03:15:21.805Z,7.77
2018-05-17T03:20:26.003Z,7.20
2018-05-17T03:22:53.690Z,7.03
2018-05-17T03:25:24.150Z,7.10
2018-05-17T03:27:52.659Z,7.07
2018-05-17T03:30:21.531Z,6.80
2018-05-17T03:32:51.494Z,7.60
2018-05-17T03:35:20.907Z,6.60
2018-05-17T03:37:48.975Z,7.13
2018-05-17T03:40:17.355Z,7.17
2018-05-17T03:42:45.193Z,6.73
2018-05-17T03:45:12.817Z,6.53
2018-05-17T03:47:41.258Z,7.53
2018-05-17T03:50:09.015Z,6.53
2018-05-17T03:52:36.660Z,6.27
2018-05-17T03:55:04.360Z,6.67
2018-05-17T03:57:32.802Z,6.37
2018-05-17T04:00:02.457Z,7.00
2018-05-17T04:02:42.658Z,7.20
2018-05-17T04:05:22.396Z,7.97
2018-05-17T04:07:50.165Z,8.30
2018-05-17T04:10:19.501Z,7.63
2018-05-17T04:12:49.478Z,6.93
2018-05-17T04:15:19.080Z,7.60
2018-05-17T04:17:51.235Z,8.07
2018-05-17T04:20:20.966Z,8.00
2018-05-17T04:22:56.987Z,8.30
2018-05-17T04:25:24.742Z,7.53
2018-05-17T04:27:53.523Z,7.47
2018-05-17T04:30:22.012Z,7.43
2018-05-17T04:32:53.443Z,8.30
2018-05-17T04:35:21.214Z,6.70
2018-05-17T04:37:49.729Z,8.33
2018-05-17T04:42:55.186Z,7.40
2018-05-17T04:45:25.206Z,7.30
2018-05-17T04:47:52.897Z,7.93
2018-05-17T04:50:21.291Z,6.90
2018-05-17T04:52:49.854Z,6.07
2018-05-17T04:55:18.577Z,7.77
2018-05-17T04:57:49.625Z,7.77
2018-05-17T05:00:20.193Z,6.80
2018-05-17T05:02:48.302Z,6.90
2018-05-17T05:05:17.719Z,6.20
2018-05-17T05:07:46.567Z,5.97
2018-05-17T05:10:15.082Z,6.83
2018-05-17T05:12:42.688Z,6.77
2018-05-17T05:15:10.371Z,7.60
2018-05-17T05:17:39.108Z,8.03
2018-05-17T05:20:08.166Z,8.37
2018-05-17T05:22:35.937Z,8.40
2018-05-17T05:25:03.525Z,8.37
2018-05-17T05:27:31.195Z,10.33
2018-05-17T05:29:59.298Z,9.60
2018-05-17T05:32:27.709Z,8.70
2018-05-17T05:34:55.343Z,8.40
2018-05-17T05:37:22.929Z,8.73
2018-05-17T05:39:52.148Z,8.83
2018-05-17T05:42:20.651Z,8.37
2018-05-17T05:44:48.285Z,9.03
2018-05-17T05:47:17.242Z,8.27
2018-05-17T05:49:45.295Z,7.80
2018-05-17T05:52:12.975Z,8.10
2018-05-17T05:54:41.798Z,8.00
2018-05-17T05:57:09.393Z,7.70
2018-05-17T05:59:36.985Z,7.40
2018-05-17T06:02:04.853Z,7.37
2018-05-17T06:04:32.434Z,6.43
2018-05-17T06:07:00.148Z,5.57
2018-05-17T06:09:28.465Z,6.10
2018-05-17T06:11:56.118Z,5.37
2018-05-17T06:14:23.784Z,5.70
2018-05-17T06:16:53.118Z,6.43
2018-05-17T06:19:22.843Z,5.63
2018-05-17T06:21:52.034Z,4.93
2018-05-17T06:24:19.941Z,6.10
2018-05-17T06:26:48.708Z,5.17
2018-05-17T06:29:17.296Z,6.33
2018-05-17T06:31:52.877Z,4.67
2018-05-17T06:34:23.130Z,5.50
2018-05-17T06:36:51.528Z,4.93
2018-05-17T06:39:19.377Z,6.00
2018-05-17T06:44:55.992Z,5.53
2018-05-17T06:47:23.675Z,4.63
2018-05-17T06:49:52.439Z,5.20
2018-05-17T06:52:21.960Z,5.17
2018-05-17T06:54:50.544Z,5.97
2018-05-17T06:57:19.101Z,5.00
2018-05-17T06:59:49.669Z,5.57
2018-05-17T07:02:17.510Z,4.87
2018-05-17T07:04:46.391Z,4.70
2018-05-17T07:07:13.979Z,5.30
2018-05-17T07:09:41.606Z,5.23
2018-05-17T07:12:09.256Z,4.90
2018-05-17T07:14:36.871Z,5.30
2018-05-17T07:17:04.492Z,4.90
2018-05-17T07:19:32.159Z,5.30
2018-05-17T07:21:59.793Z,5.20
2018-05-17T07:24:27.402Z,5.30
2018-05-17T07:26:55.138Z,5.03
2018-05-17T07:29:25.079Z,5.43
2018-05-17T07:31:52.743Z,5.10
2018-05-17T07:34:22.129Z,5.13
2018-05-17T07:36:51.176Z,5.17
2018-05-17T07:39:19.896Z,4.80
2018-05-17T07:41:49.472Z,5.03
2018-05-17T07:44:18.579Z,5.37
2018-05-17T07:46:52.824Z,5.53
2018-05-17T07:49:21.445Z,6.13
2018-05-17T07:51:52.672Z,6.60
2018-05-17T07:54:23.515Z,5.27
2018-05-17T07:56:51.510Z,5.67
2018-05-17T08:01:55.342Z,5.27
2018-05-17T08:04:22.989Z,5.40
2018-05-17T08:06:51.988Z,6.00
2018-05-17T08:09:22.768Z,6.27
2018-05-17T08:11:51.307Z,6.23
2018-05-17T08:14:19.061Z,6.53
2018-05-17T08:16:51.370Z,5.90
2018-05-17T08:19:22.469Z,6.30
2018-05-17T08:21:53.606Z,6.57
2018-05-17T08:24:23.379Z,6.23
2018-05-17T08:26:51.739Z,6.40
2018-05-17T08:29:19.822Z,5.80
2018-05-17T08:34:22.129Z,6.27
2018-05-17T08:36:50.709Z,6.27
2018-05-17T08:39:22.531Z,6.97
2018-05-17T08:41:52.064Z,5.73
2018-05-17T08:44:21.599Z,7.13
2018-05-17T08:46:50.948Z,6.93
2018-05-17T08:49:19.448Z,6.57
2018-05-17T08:51:48.346Z,6.57
2018-05-17T08:54:17.426Z,7.07
2018-05-17T08:56:45.946Z,6.93
2018-05-17T08:59:13.789Z,6.73
2018-05-17T09:01:42.274Z,6.77
2018-05-17T09:04:12.999Z,6.63
2018-05-17T09:09:19.734Z,6.73
2018-05-17T09:11:52.912Z,6.73
2018-05-17T09:14:21.780Z,6.90
2018-05-17T09:16:51.154Z,6.07
2018-05-17T09:19:19.157Z,7.30
2018-05-17T09:21:47.748Z,7.00
2018-05-17T09:24:15.582Z,7.07
2018-05-17T09:26:43.184Z,6.77
2018-05-17T09:29:11.677Z,7.07
2018-05-17T09:31:40.297Z,6.83
2018-05-17T09:34:08.662Z,7.20
2018-05-17T09:36:39.336Z,6.50
2018-05-17T09:39:09.289Z,7.00
2018-05-17T09:41:37.215Z,6.63
2018-05-17T09:44:05.911Z,7.07
2018-05-17T09:46:35.814Z,5.53
2018-05-17T09:49:03.554Z,6.60
2018-05-17T09:51:32.522Z,7.67
2018-05-17T09:54:04.115Z,7.20
2018-05-17T09:56:35.294Z,7.20
2018-05-17T09:59:04.157Z,7.67
2018-05-17T10:01:31.895Z,7.80
2018-05-17T10:03:59.803Z,7.90
2018-05-17T10:06:28.089Z,7.50
2018-05-17T10:08:56.703Z,7.10
2018-05-17T10:11:24.276Z,6.60
2018-05-17T10:13:52.011Z,7.80
2018-05-17T10:16:21.463Z,8.53
2018-05-17T10:18:50.405Z,8.27
2018-05-17T10:21:22.405Z,8.57
2018-05-17T10:23:51.327Z,8.93
2018-05-17T10:26:19.903Z,8.67
2018-05-17T10:28:51.037Z,9.10
2018-05-17T10:31:21.806Z,9.37
2018-05-17T10:33:53.595Z,8.57
2018-05-17T10:36:22.622Z,9.47
2018-05-17T10:38:54.760Z,9.83
2018-05-17T10:41:22.405Z,9.13
2018-05-17T10:43:51.641Z,8.83
2018-05-17T10:46:20.352Z,9.57
2018-05-17T10:48:50.844Z,9.63
2018-05-17T10:51:22.391Z,10.07
2018-05-17T10:53:52.208Z,9.43
2018-05-17T10:56:21.988Z,9.70
2018-05-17T10:58:52.838Z,9.43
2018-05-17T11:01:21.096Z,9.13
2018-05-17T11:03:56.454Z,8.43
2018-05-17T11:06:24.187Z,9.27
2018-05-17T11:08:52.482Z,10.27
2018-05-17T11:11:20.294Z,9.80
2018-05-17T11:13:48.148Z,10.27
2018-05-17T11:16:17.626Z,8.50
2018-05-17T11:18:46.676Z,9.73
2018-05-17T11:21:15.234Z,9.10
2018-05-17T11:23:42.950Z,8.33
2018-05-17T11:26:10.586Z,9.00
2018-05-17T11:28:39.193Z,8.13
2018-05-17T11:31:07.899Z,8.50
2018-05-17T11:33:38.034Z,8.27
2018-05-17T11:36:06.534Z,8.60
2018-05-17T11:38:35.008Z,8.17
2018-05-17T11:43:37.352Z,7.57
2018-05-17T11:46:04.985Z,7.63
2018-05-17T11:48:33.611Z,7.27
2018-05-17T11:51:01.999Z,6.97
2018-05-17T11:53:29.619Z,7.53
2018-05-17T11:55:58.482Z,8.13
2018-05-17T11:58:26.172Z,8.10
2018-05-17T12:00:54.436Z,7.37
2018-05-17T12:03:22.157Z,7.33
2018-05-17T12:05:51.354Z,7.73
2018-05-17T12:08:19.056Z,6.90
2018-05-17T12:10:53.759Z,7.40
2018-05-17T12:13:24.355Z,7.30
2018-05-17T12:15:52.612Z,7.83
2018-05-17T12:18:21.538Z,8.33
2018-05-17T12:20:50.711Z,8.33
2018-05-17T12:23:20.955Z,7.40
2018-05-17T12:25:48.705Z,7.40
2018-05-17T12:28:17.763Z,7.30
2018-05-17T12:30:45.451Z,7.53
2018-05-17T12:33:13.590Z,6.90
2018-05-17T12:35:41.696Z,7.30
2018-05-17T12:38:09.347Z,6.10
2018-05-17T12:40:38.409Z,6.80
2018-05-17T12:43:05.986Z,6.23
2018-05-17T12:45:33.605Z,7.60
2018-05-17T12:48:01.252Z,6.57
2018-05-17T12:50:28.917Z,7.17
2018-05-17T12:52:56.510Z,6.97
2018-05-17T12:55:24.898Z,6.37
2018-05-17T12:57:52.546Z,6.50
2018-05-17T13:00:20.224Z,6.53
2018-05-17T13:02:48.403Z,6.53
2018-05-17T13:05:23.264Z,6.20
2018-05-17T13:07:53.417Z,6.80
2018-05-17T13:10:24.904Z,7.17
2018-05-17T13:12:55.153Z,7.33
2018-05-17T13:15:23.537Z,6.30
2018-05-17T13:17:51.233Z,6.13
2018-05-17T13:20:21.474Z,6.83
2018-05-17T13:22:51.187Z,6.50
2018-05-17T13:25:23.538Z,6.27
2018-05-17T13:27:52.111Z,7.00
2018-05-17T13:30:23.033Z,6.23
2018-05-17T13:32:51.464Z,6.67
2018-05-17T13:35:22.801Z,6.20
2018-05-17T13:37:55.549Z,6.20
2018-05-17T13:40:23.925Z,6.93
2018-05-17T13:42:53.727Z,6.97
2018-05-17T13:45:26.540Z,6.67
2018-05-17T13:47:56.878Z,6.53
2018-05-17T13:50:25.408Z,6.90
2018-05-17T13:52:53.149Z,6.30
2018-05-17T13:55:23.525Z,5.97
2018-05-17T13:57:55.220Z,5.60
2018-05-17T14:00:24.251Z,6.17
2018-05-17T14:02:54.207Z,6.57
2018-05-17T14:05:23.023Z,6.73
2018-05-17T14:08:00.695Z,7.20
2018-05-17T14:10:29.121Z,6.20
2018-05-17T14:12:56.727Z,5.97
2018-05-17T14:15:24.886Z,5.90
2018-05-17T14:17:53.362Z,6.60
2018-05-17T14:20:24.985Z,6.00
2018-05-17T14:22:55.011Z,6.30
2018-05-17T14:25:23.533Z,6.07
2018-05-17T14:27:52.530Z,7.10
2018-05-17T14:30:21.901Z,5.83
2018-05-17T14:32:52.433Z,6.67
2018-05-17T14:35:20.419Z,6.73
2018-05-17T14:37:49.858Z,6.07
2018-05-17T14:40:25.109Z,5.83
2018-05-17T14:42:55.011Z,6.37
2018-05-17T14:45:25.689Z,5.80
2018-05-17T14:47:54.773Z,5.73
2018-05-17T14:50:25.268Z,5.93
2018-05-17T14:52:55.158Z,5.67
2018-05-17T14:55:27.054Z,5.83
2018-05-17T14:57:59.149Z,6.20
2018-05-17T15:00:27.812Z,6.30
2018-05-17T15:02:55.904Z,6.10
2018-05-17T15:05:24.561Z,6.27
2018-05-17T15:07:52.894Z,6.30
2018-05-17T15:10:22.668Z,6.30
2018-05-17T15:12:52.514Z,6.07
2018-05-17T15:15:20.328Z,5.87
2018-05-17T15:17:50.682Z,6.33
2018-05-17T15:20:23.501Z,5.63
2018-05-17T15:22:55.919Z,5.77
2018-05-17T15:25:24.448Z,6.30
2018-05-17T15:28:02.652Z,5.33
2018-05-17T15:30:31.793Z,5.97
2018-05-17T15:33:01.069Z,5.70
2018-05-17T15:35:35.597Z,5.90
2018-05-17T15:38:04.542Z,6.10
2018-05-17T15:40:34.062Z,6.07
2018-05-17T15:43:01.706Z,6.40
2018-05-17T15:45:31.406Z,6.13
2018-05-17T15:47:59.802Z,5.67
2018-05-17T15:50:27.408Z,6.13
2018-05-17T15:52:55.460Z,7.03
2018-05-17T15:55:23.137Z,5.50
2018-05-17T15:57:53.394Z,5.50
2018-05-17T16:00:23.008Z,6.10
2018-05-17T16:02:52.824Z,5.80
2018-05-17T16:05:20.576Z,6.37
2018-05-17T16:07:48.277Z,5.77
2018-05-17T16:10:18.049Z,5.57
2018-05-17T16:12:47.272Z,5.80
2018-05-17T16:15:15.291Z,5.17
2018-05-17T16:17:46.100Z,6.13
2018-05-17T16:20:14.402Z,5.77
2018-05-17T16:22:44.949Z,5.57
2018-05-17T16:25:13.666Z,5.87
2018-05-17T16:27:44.719Z,6.23
2018-05-17T16:30:13.053Z,6.17
2018-05-17T16:32:45.342Z,6.67
2018-05-17T16:35:15.042Z,6.67
2018-05-17T16:37:45.357Z,6.17
2018-05-17T16:40:14.001Z,5.87
2018-05-17T16:42:44.924Z,5.60
2018-05-17T16:45:14.198Z,6.97
2018-05-17T16:47:43.636Z,5.67
2018-05-17T16:50:11.337Z,5.60
2018-05-17T16:52:43.705Z,5.03
2018-05-17T16:55:18.059Z,5.77
2018-05-17T16:57:45.916Z,6.07
2018-05-17T17:00:14.322Z,6.00
2018-05-17T17:02:44.141Z,5.33
2018-05-17T17:05:12.971Z,5.93
2018-05-17T17:07:42.741Z,5.80
2018-05-17T17:10:12.880Z,6.07
2018-05-17T17:12:47.094Z,5.60
2018-05-17T17:15:18.316Z,5.83
2018-05-17T17:17:46.227Z,6.03
2018-05-17T17:20:17.929Z,6.00
2018-05-17T17:22:46.553Z,6.60
2018-05-17T17:25:15.728Z,6.13
2018-05-17T17:27:45.000Z,6.00
2018-05-17T17:30:12.875Z,6.40
2018-05-17T17:32:41.175Z,6.63
2018-05-17T17:35:10.129Z,5.77
2018-05-17T17:37:41.562Z,6.13
2018-05-17T17:40:12.434Z,6.63
2018-05-17T17:42:43.599Z,5.83
2018-05-17T17:45:12.957Z,6.23
2018-05-17T17:47:42.097Z,6.57
2018-05-17T17:50:13.555Z,6.73
2018-05-17T17:52:42.442Z,6.00
2018-05-17T17:55:11.307Z,6.43
2018-05-17T17:57:44.339Z,6.83
2018-05-17T18:00:12.981Z,6.33
2018-05-17T18:02:42.493Z,6.87
2018-05-17T18:05:11.846Z,5.47
2018-05-17T18:07:43.859Z,5.77
2018-05-17T18:10:13.635Z,6.50
2018-05-17T18:12:42.373Z,6.73
2018-05-17T18:15:15.994Z,6.47
2018-05-17T18:17:43.960Z,6.30
2018-05-17T18:20:12.540Z,6.17
2018-05-17T18:22:40.168Z,6.70
2018-05-17T18:25:07.788Z,6.77
2018-05-17T18:27:35.448Z,5.60
2018-05-17T18:30:03.058Z,5.83
2018-05-17T18:32:30.733Z,5.93
2018-05-17T18:34:58.698Z,6.07
2018-05-17T18:37:27.534Z,6.37
2018-05-17T18:39:56.645Z,7.00
2018-05-17T18:42:24.465Z,6.10
2018-05-17T18:44:52.061Z,6.07
2018-05-17T18:47:19.703Z,6.33
2018-05-17T18:49:47.317Z,5.93
2018-05-17T18:52:14.954Z,6.00
2018-05-17T18:54:42.552Z,5.70
2018-05-17T18:57:10.932Z,6.10
2018-05-17T18:59:38.875Z,6.00
2018-05-17T19:02:06.504Z,5.53
2018-05-17T19:04:34.107Z,5.73
2018-05-17T19:07:01.758Z,5.70
2018-05-17T19:09:29.381Z,6.03
2018-05-17T19:11:57.514Z,6.10
2018-05-17T19:14:25.883Z,6.47
2018-05-17T19:16:54.603Z,6.40
2018-05-17T19:19:23.129Z,6.37
2018-05-17T19:21:54.117Z,6.43
2018-05-17T19:24:24.776Z,6.40
2018-05-17T19:26:54.059Z,6.27
2018-05-17T19:29:22.318Z,6.20
2018-05-17T19:31:51.839Z,6.47
2018-05-17T19:34:21.447Z,6.47
2018-05-17T19:36:50.116Z,6.23
2018-05-17T19:39:17.733Z,6.97
2018-05-17T19:41:46.160Z,6.83
2018-05-17T19:44:15.158Z,7.40
2018-05-17T19:46:45.672Z,6.83
2018-05-17T19:49:15.670Z,7.77
2018-05-17T19:51:45.800Z,7.10
2018-05-17T19:54:15.755Z,7.97
2018-05-17T19:56:45.972Z,8.23
2018-05-17T19:59:17.638Z,8.40
2018-05-17T20:01:45.340Z,8.83
2018-05-17T20:04:14.371Z,9.70
2018-05-17T20:06:43.583Z,9.90
2018-05-17T20:09:13.046Z,9.37
2018-05-17T20:11:45.637Z,10.47
2018-05-17T20:14:15.226Z,10.30
2018-05-17T20:16:50.742Z,10.63
2018-05-17T20:19:20.183Z,10.60
2018-05-17T20:21:48.020Z,10.87
2018-05-17T20:24:15.660Z,10.53
2018-05-17T20:26:44.653Z,10.80
2018-05-17T20:29:13.306Z,10.43
2018-05-17T20:31:44.558Z,11.03
2018-05-17T20:34:13.481Z,10.83
2018-05-17T20:36:42.287Z,11.17
2018-05-17T20:39:13.433Z,10.57
2018-05-17T20:41:44.752Z,10.30
2018-05-17T20:44:14.677Z,9.83
2018-05-17T20:46:46.244Z,10.90
2018-05-17T20:49:14.303Z,10.97
2018-05-17T20:51:43.299Z,9.80
2018-05-17T20:54:12.152Z,10.30
2018-05-17T20:56:44.893Z,10.03
2018-05-17T20:59:13.390Z,9.93
2018-05-17T21:01:44.074Z,9.80
2018-05-17T21:04:13.138Z,9.73
2018-05-17T21:06:47.005Z,9.10
2018-05-17T21:09:14.851Z,10.17
2018-05-17T21:11:48.310Z,10.30
2018-05-17T21:14:17.457Z,9.60
2018-05-17T21:16:45.173Z,9.50
2018-05-17T21:19:13.888Z,10.40
2018-05-17T21:24:18.857Z,10.63
2018-05-17T21:26:48.025Z,9.23
2018-05-17T21:29:20.175Z,9.90
2018-05-17T21:31:47.814Z,10.03
2018-05-17T21:34:15.506Z,10.40
2018-05-17T21:36:46.726Z,9.20
2018-05-17T21:39:15.563Z,9.80
2018-05-17T21:41:44.549Z,10.27
2018-05-17T21:44:16.301Z,10.97
2018-05-17T21:46:45.627Z,10.33
2018-05-17T21:49:14.247Z,11.27
2018-05-17T21:51:43.942Z,10.33
2018-05-17T21:54:15.727Z,9.80
2018-05-17T21:56:46.959Z,11.20
2018-05-17T21:59:18.142Z,10.57
2018-05-17T22:01:45.758Z,10.63
2018-05-17T22:04:13.523Z,10.67
2018-05-17T22:06:49.912Z,10.77
2018-05-17T22:09:18.378Z,11.27
2018-05-17T22:11:46.078Z,9.93
2018-05-17T22:14:14.527Z,10.50
2018-05-17T22:16:46.083Z,10.27
2018-05-17T22:19:15.064Z,9.67
2018-05-17T22:21:45.520Z,9.87
2018-05-17T22:24:13.968Z,10.03
2018-05-17T22:26:44.687Z,10.03
2018-05-17T22:29:15.920Z,10.23
2018-05-17T22:31:46.227Z,11.03
2018-05-17T22:34:15.325Z,10.30
2018-05-17T22:36:43.927Z,11.67
2018-05-17T22:39:13.043Z,10.97
2018-05-17T22:41:43.267Z,11.33
2018-05-17T22:44:11.759Z,11.40
2018-05-17T22:46:43.516Z,11.37
2018-05-17T22:49:14.259Z,12.30
2018-05-17T22:54:23.037Z,12.67
2018-05-17T22:57:02.404Z,11.83
2018-05-17T22:59:30.659Z,12.40
2018-05-17T23:01:58.851Z,12.03
2018-05-17T23:04:26.467Z,12.00
2018-05-17T23:06:54.141Z,10.60
2018-05-17T23:09:22.968Z,10.93
2018-05-17T23:11:51.494Z,10.27
2018-05-17T23:14:21.196Z,10.53
2018-05-17T23:16:49.813Z,9.97
2018-05-17T23:19:20.707Z,10.97
2018-05-17T23:21:49.115Z,10.87
2018-05-17T23:24:18.398Z,10.57
2018-05-17T23:26:46.957Z,11.53
2018-05-17T23:29:14.670Z,11.57
2018-05-17T23:31:50.450Z,11.43
2018-05-17T23:34:18.142Z,11.83
2018-05-17T23:36:45.778Z,11.70
2018-05-17T23:39:14.111Z,12.30
2018-05-17T23:41:45.852Z,11.27
2018-05-17T23:44:13.875Z,11.00
2018-05-17T23:49:18.025Z,11.80
2018-05-17T23:51:46.465Z,10.33
2018-05-17T23:54:14.160Z,11.03
2018-05-17T23:56:43.384Z,10.70
2018-05-17T23:59:16.211Z,11.63
